createdAt,value
2023-05-22T00:00:46.194Z,17.72
2023-05-22T00:03:53.426Z,17.73
2023-05-22T00:06:55.676Z,17.73
2023-05-22T00:09:59.066Z,17.72
2023-05-22T00:13:04.182Z,17.73
2023-05-22T00:16:06.718Z,17.71
2023-05-22T00:19:13.601Z,17.70
2023-05-22T00:22:16.585Z,17.67
2023-05-22T00:25:21.479Z,17.66
2023-05-22T00:28:31.964Z,17.63
2023-05-22T00:31:45.078Z,17.64
2023-05-22T00:34:51.510Z,17.64
2023-05-22T00:37:56.663Z,17.63
2023-05-22T00:41:03.624Z,17.64
2023-05-22T00:44:12.185Z,17.62
2023-05-22T00:47:14.832Z,17.58
2023-05-22T00:50:19.352Z,17.54
2023-05-22T00:53:33.933Z,17.49
2023-05-22T00:56:39.946Z,17.43
2023-05-22T00:59:46.391Z,17.37
2023-05-22T01:02:53.594Z,17.32
2023-05-22T01:05:56.470Z,17.29
2023-05-22T01:08:58.692Z,17.25
2023-05-22T01:12:07.235Z,17.24
2023-05-22T01:15:17.630Z,17.19
2023-05-22T01:18:25.180Z,17.16
2023-05-22T01:21:38.499Z,17.13
2023-05-22T01:25:02.785Z,17.06
2023-05-22T01:28:23.618Z,16.94
2023-05-22T01:31:31.175Z,16.88
2023-05-22T01:34:37.872Z,16.81
2023-05-22T01:37:40.837Z,16.76
2023-05-22T01:40:44.936Z,16.70
2023-05-22T01:43:51.196Z,16.72
2023-05-22T01:47:00.560Z,16.77
2023-05-22T01:50:02.825Z,16.85
2023-05-22T01:53:08.517Z,16.95
2023-05-22T01:56:14.663Z,16.96
2023-05-22T01:59:21.694Z,16.92
2023-05-22T02:02:26.312Z,16.91
2023-05-22T02:05:33.723Z,16.90
2023-05-22T02:08:45.871Z,16.85
2023-05-22T02:11:48.717Z,16.82
2023-05-22T02:14:53.139Z,16.80
2023-05-22T02:18:07.153Z,16.74
2023-05-22T02:21:10.595Z,16.71
2023-05-22T02:24:15.486Z,16.67
2023-05-22T02:27:20.837Z,16.67
2023-05-22T02:30:22.954Z,16.64
2023-05-22T02:33:30.116Z,16.65
2023-05-22T02:36:39.432Z,16.62
2023-05-22T02:39:42.736Z,16.60
2023-05-22T02:42:45.122Z,16.57
2023-05-22T02:45:48.811Z,16.55
2023-05-22T02:48:52.280Z,16.53
2023-05-22T02:51:56.582Z,16.52
2023-05-22T02:55:01.131Z,16.51
2023-05-22T02:58:03.129Z,16.50
2023-05-22T03:01:06.727Z,16.48
2023-05-22T03:04:14.015Z,16.47
2023-05-22T03:07:18.043Z,16.41
2023-05-22T03:10:20.377Z,16.38
2023-05-22T03:13:22.623Z,16.35
2023-05-22T03:16:25.303Z,16.32
2023-05-22T03:19:33.951Z,16.27
2023-05-22T03:22:36.366Z,16.18
2023-05-22T03:25:38.862Z,16.13
2023-05-22T03:28:41.069Z,16.09
2023-05-22T03:31:49.092Z,16.05
2023-05-22T03:34:52.582Z,15.99
2023-05-22T03:37:54.925Z,15.99
2023-05-22T03:40:57.048Z,15.98
2023-05-22T03:44:03.204Z,15.98
2023-05-22T03:47:06.797Z,15.94
2023-05-22T03:50:10.824Z,15.96
2023-05-22T03:53:12.914Z,15.96
2023-05-22T03:56:15.393Z,15.92
2023-05-22T03:59:19.708Z,15.90
2023-05-22T04:02:26.449Z,15.89
2023-05-22T04:05:32.289Z,15.87
2023-05-22T04:08:34.587Z,15.90
2023-05-22T04:11:37.268Z,15.89
2023-05-22T04:14:39.305Z,15.90
2023-05-22T04:17:41.668Z,15.94
2023-05-22T04:20:46.259Z,15.93
2023-05-22T04:23:49.556Z,15.97
2023-05-22T04:26:52.753Z,16.02
2023-05-22T04:29:55.127Z,16.07
2023-05-22T04:33:00.396Z,16.12
2023-05-22T04:36:06.985Z,16.16
2023-05-22T04:39:11.180Z,16.21
2023-05-22T04:42:14.590Z,16.29
2023-05-22T04:45:19.646Z,16.34
2023-05-22T04:48:22.590Z,16.39
2023-05-22T04:51:29.811Z,16.44
2023-05-22T04:54:34.670Z,16.46
2023-05-22T04:57:37.217Z,16.50
2023-05-22T05:00:39.891Z,16.53
2023-05-22T05:03:45.108Z,16.58
2023-05-22T05:06:49.028Z,16.62
2023-05-22T05:09:56.853Z,16.67
2023-05-22T05:12:59.213Z,16.76
2023-05-22T05:16:01.433Z,16.85
2023-05-22T05:19:04.221Z,16.92
2023-05-22T05:22:10.914Z,17.01
2023-05-22T05:25:17.820Z,17.05
2023-05-22T05:28:20.183Z,17.07
2023-05-22T05:31:23.581Z,17.12
2023-05-22T05:34:26.705Z,17.20
2023-05-22T05:37:41.963Z,17.26
2023-05-22T05:40:46.005Z,17.35
2023-05-22T05:43:48.282Z,17.42
2023-05-22T05:46:52.664Z,17.49
2023-05-22T05:49:56.443Z,17.55
2023-05-22T05:53:01.854Z,17.59
2023-05-22T05:56:04.519Z,17.62
2023-05-22T05:59:28.495Z,17.69
2023-05-22T06:02:55.425Z,17.80
2023-05-22T06:06:17.646Z,17.85
2023-05-22T06:09:41.158Z,17.94
2023-05-22T06:12:51.020Z,18.01
2023-05-22T06:15:54.072Z,18.04
2023-05-22T06:18:57.456Z,18.07
2023-05-22T06:22:03.070Z,18.15
2023-05-22T06:25:07.687Z,18.23
2023-05-22T06:28:13.401Z,18.32
2023-05-22T06:31:15.946Z,18.32
2023-05-22T06:34:22.582Z,18.30
2023-05-22T06:37:28.197Z,18.25
2023-05-22T06:40:34.781Z,18.25
2023-05-22T06:43:47.289Z,18.30
2023-05-22T06:46:50.687Z,18.45
2023-05-22T06:49:58.026Z,18.54
2023-05-22T06:53:03.289Z,18.72
2023-05-22T06:56:10.910Z,18.92
2023-05-22T06:59:28.079Z,19.17
2023-05-22T07:02:42.302Z,19.27
2023-05-22T07:06:02.648Z,19.26
2023-05-22T07:09:07.795Z,19.28
2023-05-22T07:12:11.741Z,19.32
2023-05-22T07:15:16.590Z,19.41
2023-05-22T07:18:23.980Z,19.45
2023-05-22T07:21:30.606Z,19.48
2023-05-22T07:24:33.324Z,19.51
2023-05-22T07:27:37.189Z,19.49
2023-05-22T07:30:39.776Z,19.48
2023-05-22T07:33:43.322Z,19.42
2023-05-22T07:36:48.965Z,19.40
2023-05-22T07:39:53.142Z,19.41
2023-05-22T07:42:59.179Z,19.45
2023-05-22T07:46:03.090Z,19.48
2023-05-22T07:49:12.632Z,19.52
2023-05-22T07:52:18.914Z,19.60
2023-05-22T07:55:24.162Z,19.83
2023-05-22T07:58:37.067Z,20.06
2023-05-22T08:01:39.806Z,20.21
2023-05-22T08:04:42.145Z,20.29
2023-05-22T08:07:44.481Z,20.48
2023-05-22T08:11:03.045Z,20.59
2023-05-22T08:14:10.776Z,20.79
2023-05-22T08:17:13.074Z,20.95
2023-05-22T08:20:16.473Z,20.96
2023-05-22T08:23:21.026Z,20.99
2023-05-22T08:26:30.102Z,21.05
2023-05-22T08:29:38.360Z,21.20
2023-05-22T08:32:43.228Z,21.40
2023-05-22T08:35:45.541Z,21.57
2023-05-22T08:38:48.388Z,21.63
2023-05-22T08:41:50.574Z,21.75
2023-05-22T08:44:58.174Z,21.89
2023-05-22T08:48:05.468Z,21.78
2023-05-22T08:51:07.994Z,21.68
2023-05-22T08:54:10.675Z,21.74
2023-05-22T08:57:14.646Z,21.89
2023-05-22T09:00:19.889Z,21.92
2023-05-22T09:03:23.251Z,22.10
2023-05-22T09:06:27.625Z,22.26
2023-05-22T09:09:29.938Z,22.28
2023-05-22T09:12:38.682Z,22.21
2023-05-22T09:15:42.072Z,22.16
2023-05-22T09:18:45.084Z,22.10
2023-05-22T09:21:48.178Z,22.16
2023-05-22T09:24:50.496Z,22.27
2023-05-22T09:27:54.378Z,22.38
2023-05-22T09:31:02.517Z,22.44
2023-05-22T09:34:08.358Z,22.43
2023-05-22T09:37:10.643Z,22.45
2023-05-22T09:40:14.276Z,22.46
2023-05-22T09:43:18.777Z,22.58
2023-05-22T09:46:26.224Z,22.60
2023-05-22T09:49:30.337Z,22.73
2023-05-22T09:52:33.664Z,22.95
2023-05-22T09:55:37.812Z,23.08
2023-05-22T09:58:42.057Z,23.21
2023-05-22T10:01:54.053Z,23.29
2023-05-22T10:05:00.177Z,23.34
2023-05-22T10:08:08.035Z,23.26
2023-05-22T10:11:11.344Z,23.28
2023-05-22T10:14:13.641Z,23.38
2023-05-22T10:17:19.791Z,23.54
2023-05-22T10:20:22.119Z,23.68
2023-05-22T10:23:26.965Z,23.79
2023-05-22T10:26:29.474Z,23.94
2023-05-22T10:29:43.509Z,24.15
2023-05-22T10:32:52.665Z,24.08
2023-05-22T10:35:57.240Z,23.97
2023-05-22T10:39:13.044Z,23.87
2023-05-22T10:42:17.301Z,23.71
2023-05-22T10:45:23.185Z,23.55
2023-05-22T10:48:39.686Z,23.79
2023-05-22T10:51:44.804Z,24.27
2023-05-22T10:54:49.231Z,24.44
2023-05-22T10:57:54.928Z,24.51
2023-05-22T11:01:10.651Z,24.52
2023-05-22T11:04:20.829Z,24.74
2023-05-22T11:07:29.686Z,24.60
2023-05-22T11:10:49.510Z,24.45
2023-05-22T11:13:51.978Z,24.41
2023-05-22T11:17:00.095Z,24.32
2023-05-22T11:20:10.706Z,24.12
2023-05-22T11:23:15.425Z,24.03
2023-05-22T11:26:17.806Z,24.05
2023-05-22T11:29:19.934Z,24.16
2023-05-22T11:32:23.719Z,24.17
2023-05-22T11:35:27.515Z,24.33
2023-05-22T11:38:30.711Z,24.32
2023-05-22T11:41:35.231Z,24.40
2023-05-22T11:44:39.258Z,24.63
2023-05-22T11:47:48.231Z,24.70
2023-05-22T11:50:52.011Z,24.72
2023-05-22T11:53:57.067Z,25.00
2023-05-22T11:56:59.499Z,25.21
2023-05-22T12:00:07.574Z,25.38
2023-05-22T12:03:17.728Z,25.38
2023-05-22T12:06:22.677Z,25.52
2023-05-22T12:09:27.589Z,25.62
2023-05-22T12:12:41.471Z,25.73
2023-05-22T12:15:52.318Z,25.92
2023-05-22T12:18:56.916Z,26.06
2023-05-22T12:22:08.616Z,25.80
2023-05-22T12:25:20.595Z,25.89
2023-05-22T12:28:23.202Z,25.93
2023-05-22T12:31:27.271Z,25.86
2023-05-22T12:34:45.436Z,25.91
2023-05-22T12:37:59.652Z,26.00
2023-05-22T12:41:02.420Z,25.99
2023-05-22T12:44:06.042Z,25.80
2023-05-22T12:47:09.929Z,25.88
2023-05-22T12:50:19.306Z,26.35
2023-05-22T12:53:32.335Z,26.64
2023-05-22T12:56:35.115Z,26.64
2023-05-22T12:59:46.759Z,26.65
2023-05-22T13:02:51.611Z,26.71
2023-05-22T13:06:10.476Z,26.85
2023-05-22T13:09:21.227Z,26.94
2023-05-22T13:12:27.420Z,26.96
2023-05-22T13:15:31.733Z,26.94
2023-05-22T13:18:41.784Z,26.96
2023-05-22T13:21:45.597Z,26.38
2023-05-22T13:24:49.295Z,25.91
2023-05-22T13:27:52.269Z,25.89
2023-05-22T13:31:01.672Z,25.51
2023-05-22T13:34:05.634Z,25.16
2023-05-22T13:37:08.181Z,24.90
2023-05-22T13:40:13.044Z,24.69
2023-05-22T13:43:15.584Z,24.44
2023-05-22T13:46:22.485Z,24.22
2023-05-22T13:49:24.687Z,24.07
2023-05-22T13:52:30.052Z,23.90
2023-05-22T13:55:33.829Z,23.79
2023-05-22T13:58:38.169Z,23.70
2023-05-22T14:01:40.674Z,23.60
2023-05-22T14:04:47.006Z,23.50
2023-05-22T14:07:58.103Z,23.43
2023-05-22T14:11:02.159Z,23.42
2023-05-22T14:14:04.299Z,23.46
2023-05-22T14:17:10.850Z,23.37
2023-05-22T14:20:17.915Z,22.68
2023-05-22T14:23:20.069Z,21.79
2023-05-22T14:26:27.305Z,21.30
2023-05-22T14:29:30.211Z,20.84
2023-05-22T14:32:32.417Z,20.40
2023-05-22T14:35:36.308Z,20.23
2023-05-22T14:38:48.778Z,20.01
2023-05-22T14:41:53.337Z,19.91
2023-05-22T14:45:00.167Z,19.81
2023-05-22T14:48:02.698Z,19.65
2023-05-22T14:51:04.867Z,19.38
2023-05-22T14:54:07.934Z,18.67
2023-05-22T14:57:17.022Z,18.44
2023-05-22T15:00:22.384Z,18.29
2023-05-22T15:03:28.318Z,18.21
2023-05-22T15:06:36.831Z,18.07
2023-05-22T15:09:43.434Z,18.04
2023-05-22T15:12:51.863Z,18.12
2023-05-22T15:16:05.971Z,18.25
2023-05-22T15:19:11.362Z,18.30
2023-05-22T15:22:19.580Z,18.37
2023-05-22T15:25:24.942Z,18.41
2023-05-22T15:28:30.253Z,18.24
2023-05-22T15:31:34.946Z,18.16
2023-05-22T15:34:51.543Z,18.02
2023-05-22T15:37:56.117Z,17.91
2023-05-22T15:41:04.873Z,17.96
2023-05-22T15:44:12.194Z,17.85
2023-05-22T15:47:26.486Z,17.66
2023-05-22T15:50:34.223Z,17.56
2023-05-22T15:53:39.425Z,17.50
2023-05-22T15:56:44.163Z,17.58
2023-05-22T15:59:51.701Z,17.73
2023-05-22T16:02:54.769Z,17.85
2023-05-22T16:05:57.081Z,17.92
2023-05-22T16:08:59.401Z,17.89
2023-05-22T16:12:02.177Z,17.85
2023-05-22T16:15:07.105Z,17.81
2023-05-22T16:18:12.300Z,17.67
2023-05-22T16:21:14.857Z,17.55
2023-05-22T16:24:21.929Z,17.52
2023-05-22T16:27:23.992Z,17.53
2023-05-22T16:30:31.784Z,17.34
2023-05-22T16:33:43.724Z,17.34
2023-05-22T16:36:48.264Z,17.27
2023-05-22T16:40:17.914Z,17.18
2023-05-22T16:43:42.002Z,17.03
2023-05-22T16:46:50.625Z,17.11
2023-05-22T16:49:52.837Z,17.08
2023-05-22T16:52:57.507Z,16.94
2023-05-22T16:56:01.098Z,16.92
2023-05-22T16:59:22.810Z,16.91
2023-05-22T17:02:29.509Z,16.98
2023-05-22T17:05:35.801Z,16.80
2023-05-22T17:08:39.502Z,16.71
2023-05-22T17:11:42.217Z,16.64
2023-05-22T17:14:46.454Z,16.72
2023-05-22T17:17:55.633Z,16.79
2023-05-22T17:21:00.563Z,16.72
2023-05-22T17:24:14.524Z,16.69
2023-05-22T17:27:31.999Z,16.64
2023-05-22T17:34:01.666Z,16.42
2023-05-22T17:37:12.389Z,16.42
2023-05-22T17:40:43.324Z,16.36
2023-05-22T17:43:55.260Z,16.30
2023-05-22T17:47:03.835Z,16.33
2023-05-22T17:50:16.770Z,16.32
2023-05-22T17:53:24.032Z,16.38
2023-05-22T17:56:38.117Z,16.47
2023-05-22T17:59:42.520Z,16.46
2023-05-22T18:02:50.011Z,16.33
2023-05-22T18:05:59.020Z,16.31
2023-05-22T18:09:06.577Z,16.29
2023-05-22T18:12:30.152Z,16.30
2023-05-22T18:15:37.629Z,16.18
2023-05-22T18:18:41.974Z,16.22
2023-05-22T18:21:56.135Z,16.26
2023-05-22T18:25:22.860Z,16.30
2023-05-22T18:28:27.731Z,16.28
2023-05-22T18:31:33.689Z,16.34
2023-05-22T18:34:40.954Z,16.35
2023-05-22T18:37:44.811Z,16.33
2023-05-22T18:40:47.357Z,16.37
2023-05-22T18:44:00.449Z,16.38
2023-05-22T18:47:02.618Z,16.42
2023-05-22T18:50:15.876Z,16.42
2023-05-22T18:53:19.633Z,16.31
2023-05-22T18:56:32.178Z,16.24
2023-05-22T18:59:43.602Z,16.14
2023-05-22T19:02:45.818Z,16.01
2023-05-22T19:05:48.027Z,15.92
2023-05-22T19:08:52.525Z,15.92
2023-05-22T19:11:58.658Z,15.87
2023-05-22T19:15:11.490Z,15.89
2023-05-22T19:18:19.732Z,15.94
2023-05-22T19:21:32.630Z,15.92
2023-05-22T19:24:38.705Z,15.81
2023-05-22T19:27:43.937Z,15.80
2023-05-22T19:30:46.404Z,15.83
2023-05-22T19:33:50.970Z,15.82
2023-05-22T19:36:58.791Z,15.77
2023-05-22T19:40:04.561Z,15.78
2023-05-22T19:43:11.338Z,15.71
2023-05-22T19:46:14.837Z,15.76
2023-05-22T19:49:21.212Z,15.68
2023-05-22T19:52:23.341Z,15.63
2023-05-22T19:55:32.549Z,15.62
2023-05-22T19:58:35.568Z,15.69
2023-05-22T20:01:40.297Z,15.68
2023-05-22T20:05:02.962Z,15.68
2023-05-22T20:08:07.452Z,15.59
2023-05-22T20:11:13.435Z,15.51
2023-05-22T20:14:36.448Z,15.54
2023-05-22T20:17:41.861Z,15.53
2023-05-22T20:20:54.655Z,15.51
2023-05-22T20:24:00.295Z,15.54
2023-05-22T20:27:09.130Z,15.53
2023-05-22T20:30:16.885Z,15.52
2023-05-22T20:33:24.785Z,15.51
2023-05-22T20:36:30.746Z,15.51
2023-05-22T20:39:35.738Z,15.50
2023-05-22T20:42:40.007Z,15.56
2023-05-22T20:45:46.162Z,15.53
2023-05-22T20:48:51.418Z,15.49
2023-05-22T20:51:56.096Z,15.56
2023-05-22T20:54:58.852Z,15.57
2023-05-22T20:58:16.821Z,15.58
2023-05-22T21:01:24.536Z,15.51
2023-05-22T21:04:31.895Z,15.44
2023-05-22T21:07:39.869Z,15.38
2023-05-22T21:10:42.141Z,15.29
2023-05-22T21:13:49.940Z,15.22
2023-05-22T21:17:05.621Z,15.24
2023-05-22T21:20:08.241Z,15.26
2023-05-22T21:23:10.519Z,15.29
2023-05-22T21:26:14.674Z,15.32
2023-05-22T21:29:18.750Z,15.36
2023-05-22T21:32:23.832Z,15.40
2023-05-22T21:35:27.131Z,15.38
2023-05-22T21:38:29.616Z,15.38
2023-05-22T21:41:35.570Z,15.38
2023-05-22T21:44:39.289Z,15.40
2023-05-22T21:47:45.303Z,15.35
2023-05-22T21:50:54.711Z,15.35
2023-05-22T21:54:04.701Z,15.36
2023-05-22T21:57:08.960Z,15.39
2023-05-22T22:00:17.532Z,15.40
2023-05-22T22:03:22.541Z,15.36
2023-05-22T22:06:27.384Z,15.34
2023-05-22T22:09:31.281Z,15.36
2023-05-22T22:12:46.293Z,15.32
2023-05-22T22:15:55.408Z,15.35
2023-05-22T22:19:01.999Z,15.34
2023-05-22T22:22:13.497Z,15.36
2023-05-22T22:25:19.868Z,15.43
2023-05-22T22:28:26.457Z,15.50
2023-05-22T22:31:51.195Z,15.55
2023-05-22T22:35:07.532Z,15.50
2023-05-22T22:38:09.849Z,15.48
2023-05-22T22:41:14.123Z,15.48
2023-05-22T22:44:18.097Z,15.45
2023-05-22T22:47:27.443Z,15.41
2023-05-22T22:50:33.609Z,15.42
2023-05-22T22:53:38.678Z,15.42
2023-05-22T22:56:44.111Z,15.36
2023-05-22T22:59:46.568Z,15.35
2023-05-22T23:02:49.341Z,15.33
2023-05-22T23:05:56.738Z,15.36
2023-05-22T23:08:59.786Z,15.31
2023-05-22T23:12:02.597Z,15.37
2023-05-22T23:15:06.499Z,15.31
2023-05-22T23:18:08.906Z,15.29
2023-05-22T23:21:13.964Z,15.31
2023-05-22T23:24:20.324Z,15.26
2023-05-22T23:27:38.421Z,15.23
2023-05-22T23:30:43.605Z,15.19
2023-05-22T23:33:47.844Z,15.18
2023-05-22T23:36:52.368Z,15.17
2023-05-22T23:39:58.528Z,15.22
2023-05-22T23:43:01.749Z,15.17
2023-05-22T23:46:05.121Z,15.15
2023-05-22T23:49:07.698Z,15.08
2023-05-22T23:52:20.925Z,15.06
2023-05-22T23:55:24.628Z,14.99
2023-05-22T23:58:30.290Z,14.90
